Aérodrome :
LOGIN :

S'inscrire | Disclaimer

   EN    FR    IT 

 










Légende :    VFR   VFR Marginal   IFR   IFR Intensif   IFR Très Intensif
Visi : 
Plafond : 
>= 8 km
>= 3000ft
5 à 8 km
1000 à 3000 ft
1500m à 5 km
500 à 1000 ft
800 à 1500m
200 à 500 ft
< 800m
< 200 ft
Symboles :   Orages  Brouillard  Fortes neiges  Fortes précipitations  Vent > 20 kt
SIGMETs :   Divers  Orages  Givrage  Turbulence  Onde Orograph.  Cendres Volcan.







- Altitude de l'aérodrome : 659 ft
- Code IATA : LGG


EBLG - Liège

DERNIER METAR :
  • 231150Z 05009KT 020V090 CAVOK 13/04 Q1014 NOSIG

METARs EXPIRÉS :
  • 231120Z 04010KT 010V080 CAVOK 12/05 Q1014 NOSIG
  • 231050Z 04008KT CAVOK 11/04 Q1014 NOSIG
  • 231020Z 06007KT CAVOK 11/04 Q1014 NOSIG
  • 230950Z 06007KT 030V100 CAVOK 09/03 Q1014 NOSIG
  • 230920Z 07006KT 030V100 CAVOK 08/03 Q1014 NOSIG

TAF TAF EBLG
Valide du 23 à 12h jusqu'au 24 à 18h UTC


231100Z 2312/2418 08010KT 9999 FEW025
TEMPO 2403/2409 SCT005 BKN008
PROB30 2404/2408 4000 BR
Pas de NOTAMs connus pour ce terrain.



MET'MAP, la Météo Aéronautique d'un coup d'oeil ! - Copyright ORBIFLY Décembre 2007 - Disclaimer

ORBIFLY MET'MAP TEAM :

Programmation & Développement : Alexandra Zaïnal
Conception & Développement : Baudouin d'Aumeries
Co-Programmation & Développement : Marc-Olivier Méhu
Soutien technique & logistique : Manuel Goepfert

Contact : metmap@orbifly.com




SOURCES & CREDITS :

   NOAA